Mackinaw City, MI

12:35 AM EDT on September 16, 2014 (GMT -0400)
Harbor Springs | Change Station
CLOSE
Current Station
Airport
Location: Harbor Springs,
Elevation: 686 ft
Nearby Weather Stations

Elev 686 ft 45.43 °N, 84.91 °W | Updated 20 minutes ago

Overcast
Overcast
52 °F
Feels Like 52 °F
N
6
Wind Variable Wind from North

Today
High -- | Low -- °F
--% Chance of Precip.
Yesterday
High -- | Low -- °F
Precip. -- in
7:18 AM 7:48 PM
Waning Gibbous, 49% visible
Pressure 30.11 in
Visibility 10.0 miles
Clouds Scattered Clouds 6000 ft
Overcast 8000 ft
Dew Point 47 °F
Humidity 84%
Rainfall 0.00 in
Snow Depth Not available.
UV 0 out of 12
Pollen 2.40 out of 12
Ozone Good
PM2.5 Good
Flu Activity Not available.
METAR KMGN 160415Z AUTO 35005KT 10SM SCT060 OVC080 11/08 A3011 RMK AO2 T01110085

More Conditions Fewer Conditions

Pressure 30.11 in
Visibility 10.0 miles
Clouds Scattered Clouds 6000 ft
Overcast 8000 ft
Dew Point 47 °F
Humidity 84%
Rainfall 0.00 in
Snow Depth Not available.
UV 0 out of 12
Pollen 2.40 out of 12
Ozone Good
PM2.5 Good
Flu Activity Not available.
METAR KMGN 160415Z AUTO 35005KT 10SM SCT060 OVC080 11/08 A3011 RMK AO2 T01110085

More Conditions Fewer Conditions

Nowcast | as of 12:00 am EDT on September 16, 2014

At 1 am...partly cloudy. Temperature 49. Light winds. At 3 am...partly cloudy. Temperature 47. Light winds. At 5 am...partly cloudy. Temperature 46. West winds 5 mph. At 7 am...mostly clear. Temperature 45. West winds 7 mph.

×

10-Day Weather Forecast

Almanac

Astronomy

Sep. 16, 2014 Rise Set
Actual Time 7:18 AM EDT 7:48 PM EDT
Civil Twilight 6:48 AM EDT 8:18 PM EDT
Nautical Twilight 6:13 AM EDT 8:53 PM EDT
Astronomical Twilight 5:36 AM EDT 9:29 PM EDT
Moon 12:14 AM EDT 3:24 PM EDT
Length of Visible Light 13h 29m
Length of Day
12h 29m
Tomorrow will be 3m 12s shorter.
Waning Gibbous, 49% of the Moon is Illuminated
Today
Waning Gibbous
Sep 24
New
Oct 1
First Quarter
Oct 8
Full
Oct 15
Last Quarter

Today's Extremes

State Highs State Lows

Community

WunderPhotos

Upload Photos

1,753,702 photos uploaded!

Nearby

Air Quality

  Air Quality AQ Index Pollutant
Yesterday Good
OZONE
Yesterday Good
PM2.5
Current Good
PM2.5
Current Good
OZONE
Monday Good
OZONE
Monday Good
PM2.5
Tuesday Good
OZONE
Tuesday Good
PM2.5
Wednesday Good
OZONE
Wednesday Good
PM2.5
Thursday Good
OZONE
Thursday Good
PM2.5
Friday Good
OZONE
Friday Good
PM2.5
Saturday Good
OZONE
Saturday Good
PM2.5

Snow Depth

Station Depth Elevation
No new snow has been reported.

Earthquake Activity

City Distance Mag. Time & Date
No recent earthquake activity has been reported nearby.
Minimum magnitude displayed is 2.5.

Coastal Water Temperatures

Place Temperature
Mackinaw City, MI 62.1 °F
Rock Cut, MI 57.9 °F
West Neebish, MI 57.9 °F
Little Rapids, MI 57.9 °F
S W Pier, MI 60.1 °F

Nearby Weather Stations